Aeroporto :
LOGIN :

Iscrizione | Disclaimer

   EN    FR    IT 

 










Sommario :    VFR   VFR Marginale   IFR   IFR Intensivo   IFR Molto Intensivo
Visibilità : 
Base nubi : 
>= 8 km
>= 3000ft
5 / 8 km
1000 / 3000 ft
1500m / 5 km
500 / 1000 ft
800 / 1500m
200 / 500 ft
< 800m
< 200 ft
Simboli :   Temporali  Nebbia  Neve Forte  Precipitazioni Forti  Vento > 20 kt
SIGMETs :   Varie  Temporali  Ghiacco  Turbolenza  Onda orograficha  Ceneri Vulcaniche






- Altitudine del aeroporto : 935 ft


EBFS - Florennes

ULTIMO METAR :
  • 241255Z AUTO 21013KT 9999 FEW017/// SCT020/// BKN024/// 04/01 Q1000 WHT

METARs OBSOLETI :
  • 241225Z AUTO 21012KT 9999 FEW014/// SCT021/// BKN025/// 04/01 Q1000 WHT
  • 241207Z AUTO 21010KT 9999 FEW013/// SCT021/// OVC033/// 04/01 Q0999 WHT
  • 241155Z AUTO 21012KT 9999 FEW013/// BKN029/// OVC034/// 04/01 Q1000 BLU
  • 241125Z AUTO 21011KT 9999 FEW013/// SCT020/// BKN027/// 03/01 Q1000 WHT
  • 241122Z AUTO 21012KT 9999 FEW013/// SCT017/// BKN021/// 03/01 Q1000 WHT
  • 241107Z AUTO 21013KT 9999 SCT013/// BKN018/// BKN021/// 03/00 Q1000 GRN
  • 241025Z AUTO 20011KT 9999 FEW012/// SCT017/// BKN022/// 03/01 Q0999 WHT
  • 241017Z AUTO 20010KT 9999 SCT012/// BKN018/// BKN023/// 03/01 Q0999 GRN
  • 240955Z AUTO 20010KT 9999 FEW012/// SCT016/// OVC021/// 03/00 Q0999 WHT
  • 240925Z AUTO 21009KT 9999 FEW011/// BKN014/// BKN018/// 03/01 Q0998 GRN
  • 240917Z AUTO 20011KT 9999 SCT012/// BKN016/// BKN020/// 03/01 Q0998 GRN
  • 240855Z AUTO 21009KT 9999 FEW012/// SCT017/// BKN023/// 03/01 Q0998 WHT
  • 240825Z AUTO 20010KT 9999 FEW010/// SCT023/// BKN027/// 02/01 Q0998 WHT

Previsioni scadute.



MetMap, La meteo Aeronautica in un colpo d'occhio ! - Copyright ORBIFLY Dicembre 2007 - Disclaimer

ORBIFLY MET'MAP TEAM :

Programmazione e sviluppo : Alexandra Zaïnal
Concezione : Baudouin d'Aumeries
Supporto tecnico e logistico : Manuel Goepfert
Aiuto : Marc-Olivier Méhu
Aiuto per la traduzione : Arnaldo La Scala




FONTI E CREDITI :

   NOAA